sensor_id;sensor_type;location;lat;lon;timestamp;temperature;humidity
2945;DHT22;1482;51.398;7.128;2023-03-23T00:01:24;10.90;99.90
2945;DHT22;1482;51.398;7.128;2023-03-23T00:03:53;10.90;99.90
2945;DHT22;1482;51.398;7.128;2023-03-23T00:06:22;10.90;99.90
2945;DHT22;1482;51.398;7.128;2023-03-23T00:08:50;10.90;99.90
2945;DHT22;1482;51.398;7.128;2023-03-23T00:11:23;10.90;99.90
2945;DHT22;1482;51.398;7.128;2023-03-23T00:13:52;11.00;1.00
2945;DHT22;1482;51.398;7.128;2023-03-23T00:16:20;11.00;99.90
2945;DHT22;1482;51.398;7.128;2023-03-23T00:18:50;11.10;1.00
2945;DHT22;1482;51.398;7.128;2023-03-23T00:21:21;11.10;1.00
2945;DHT22;1482;51.398;7.128;2023-03-23T00:23:51;11.10;99.90
2945;DHT22;1482;51.398;7.128;2023-03-23T00:26:16;11.20;99.90
2945;DHT22;1482;51.398;7.128;2023-03-23T00:28:42;11.20;1.00
2945;DHT22;1482;51.398;7.128;2023-03-23T00:31:09;11.30;1.00
2945;DHT22;1482;51.398;7.128;2023-03-23T00:33:36;11.30;99.90
2945;DHT22;1482;51.398;7.128;2023-03-23T00:36:07;11.40;99.90
2945;DHT22;1482;51.398;7.128;2023-03-23T00:38:34;11.50;99.90
2945;DHT22;1482;51.398;7.128;2023-03-23T00:41:00;11.50;99.90
2945;DHT22;1482;51.398;7.128;2023-03-23T00:43:28;11.60;19.70
2945;DHT22;1482;51.398;7.128;2023-03-23T00:45:55;11.70;1.00
2945;DHT22;1482;51.398;7.128;2023-03-23T00:48:24;11.60;1.00
2945;DHT22;1482;51.398;7.128;2023-03-23T00:50:50;11.60;1.00
2945;DHT22;1482;51.398;7.128;2023-03-23T00:53:17;11.70;1.00
2945;DHT22;1482;51.398;7.128;2023-03-23T00:55:44;11.60;1.00
2945;DHT22;1482;51.398;7.128;2023-03-23T00:58:11;11.70;1.00
2945;DHT22;1482;51.398;7.128;2023-03-23T01:00:37;11.70;1.00
2945;DHT22;1482;51.398;7.128;2023-03-23T01:03:03;11.60;1.00
2945;DHT22;1482;51.398;7.128;2023-03-23T01:05:28;11.60;1.00
2945;DHT22;1482;51.398;7.128;2023-03-23T01:08:00;11.60;1.00
2945;DHT22;1482;51.398;7.128;2023-03-23T01:10:27;11.50;99.90
2945;DHT22;1482;51.398;7.128;2023-03-23T01:12:52;11.50;99.90
2945;DHT22;1482;51.398;7.128;2023-03-23T01:15:19;11.50;99.90
2945;DHT22;1482;51.398;7.128;2023-03-23T01:17:45;11.40;1.00
2945;DHT22;1482;51.398;7.128;2023-03-23T01:20:13;11.30;1.00
2945;DHT22;1482;51.398;7.128;2023-03-23T01:22:40;11.30;1.00
2945;DHT22;1482;51.398;7.128;2023-03-23T01:25:06;11.40;99.90
2945;DHT22;1482;51.398;7.128;2023-03-23T01:27:32;11.30;1.00
2945;DHT22;1482;51.398;7.128;2023-03-23T01:29:58;11.30;99.90
2945;DHT22;1482;51.398;7.128;2023-03-23T01:32:23;11.20;99.90
2945;DHT22;1482;51.398;7.128;2023-03-23T01:34:49;11.20;99.90
2945;DHT22;1482;51.398;7.128;2023-03-23T01:37:14;11.20;99.90
2945;DHT22;1482;51.398;7.128;2023-03-23T01:39:41;11.20;99.90
2945;DHT22;1482;51.398;7.128;2023-03-23T01:42:08;11.20;97.10
2945;DHT22;1482;51.398;7.128;2023-03-23T01:46:59;11.20;1.00
2945;DHT22;1482;51.398;7.128;2023-03-23T01:49:29;11.20;60.10
2945;DHT22;1482;51.398;7.128;2023-03-23T01:52:08;11.30;99.90
2945;DHT22;1482;51.398;7.128;2023-03-23T01:54:36;11.30;1.00
2945;DHT22;1482;51.398;7.128;2023-03-23T01:57:11;11.30;1.00
2945;DHT22;1482;51.398;7.128;2023-03-23T01:59:39;11.30;99.90
2945;DHT22;1482;51.398;7.128;2023-03-23T02:02:08;11.30;99.90
2945;DHT22;1482;51.398;7.128;2023-03-23T02:04:36;11.30;99.90
2945;DHT22;1482;51.398;7.128;2023-03-23T02:07:03;11.30;99.90
2945;DHT22;1482;51.398;7.128;2023-03-23T02:09:29;11.30;99.90
2945;DHT22;1482;51.398;7.128;2023-03-23T02:11:56;11.30;99.90
2945;DHT22;1482;51.398;7.128;2023-03-23T02:14:24;11.30;1.00
2945;DHT22;1482;51.398;7.128;2023-03-23T02:17:18;11.40;99.90
2945;DHT22;1482;51.398;7.128;2023-03-23T02:23:02;11.20;1.00
2945;DHT22;1482;51.398;7.128;2023-03-23T02:25:52;11.40;14.90
2945;DHT22;1482;51.398;7.128;2023-03-23T02:33:55;11.30;99.90
2945;DHT22;1482;51.398;7.128;2023-03-23T02:36:49;11.30;99.90
2945;DHT22;1482;51.398;7.128;2023-03-23T02:39:20;11.30;1.00
2945;DHT22;1482;51.398;7.128;2023-03-23T02:41:54;11.10;1.00
2945;DHT22;1482;51.398;7.128;2023-03-23T02:44:22;11.10;1.00
2945;DHT22;1482;51.398;7.128;2023-03-23T02:46:49;11.00;99.90
2945;DHT22;1482;51.398;7.128;2023-03-23T02:49:16;11.00;36.60
2945;DHT22;1482;51.398;7.128;2023-03-23T02:51:45;11.10;99.90
2945;DHT22;1482;51.398;7.128;2023-03-23T02:54:12;11.10;99.90
2945;DHT22;1482;51.398;7.128;2023-03-23T02:56:39;11.00;1.00
2945;DHT22;1482;51.398;7.128;2023-03-23T02:59:05;11.10;99.90
2945;DHT22;1482;51.398;7.128;2023-03-23T03:04:05;11.00;99.90
2945;DHT22;1482;51.398;7.128;2023-03-23T03:06:47;11.00;83.10
2945;DHT22;1482;51.398;7.128;2023-03-23T03:09:30;11.00;11.60
2945;DHT22;1482;51.398;7.128;2023-03-23T03:12:07;10.90;11.50
2945;DHT22;1482;51.398;7.128;2023-03-23T03:14:39;10.90;99.90
2945;DHT22;1482;51.398;7.128;2023-03-23T03:17:24;11.00;99.90
2945;DHT22;1482;51.398;7.128;2023-03-23T03:19:57;10.90;99.90
2945;DHT22;1482;51.398;7.128;2023-03-23T03:22:26;10.90;1.00
2945;DHT22;1482;51.398;7.128;2023-03-23T03:24:59;11.00;99.90
2945;DHT22;1482;51.398;7.128;2023-03-23T03:27:26;11.00;1.00
2945;DHT22;1482;51.398;7.128;2023-03-23T03:29:55;11.00;1.00
2945;DHT22;1482;51.398;7.128;2023-03-23T03:32:41;11.00;99.90
2945;DHT22;1482;51.398;7.128;2023-03-23T03:35:09;11.10;99.90
2945;DHT22;1482;51.398;7.128;2023-03-23T03:37:36;11.10;1.00
2945;DHT22;1482;51.398;7.128;2023-03-23T03:40:05;11.10;1.00
2945;DHT22;1482;51.398;7.128;2023-03-23T03:42:37;11.10;1.00
2945;DHT22;1482;51.398;7.128;2023-03-23T03:45:03;11.10;99.90
2945;DHT22;1482;51.398;7.128;2023-03-23T03:47:28;11.10;99.90
2945;DHT22;1482;51.398;7.128;2023-03-23T03:49:54;11.20;99.90
2945;DHT22;1482;51.398;7.128;2023-03-23T03:52:19;11.20;99.90
2945;DHT22;1482;51.398;7.128;2023-03-23T03:54:45;11.20;99.90
2945;DHT22;1482;51.398;7.128;2023-03-23T03:57:11;11.30;81.00
2945;DHT22;1482;51.398;7.128;2023-03-23T03:59:37;11.30;75.10
2945;DHT22;1482;51.398;7.128;2023-03-23T04:02:02;11.20;11.40
2945;DHT22;1482;51.398;7.128;2023-03-23T04:04:29;11.30;1.00
2945;DHT22;1482;51.398;7.128;2023-03-23T04:06:54;11.30;1.00
2945;DHT22;1482;51.398;7.128;2023-03-23T04:09:20;11.30;1.00
2945;DHT22;1482;51.398;7.128;2023-03-23T04:11:46;11.30;1.00
2945;DHT22;1482;51.398;7.128;2023-03-23T04:14:12;11.30;1.00
2945;DHT22;1482;51.398;7.128;2023-03-23T04:16:37;11.30;1.00
2945;DHT22;1482;51.398;7.128;2023-03-23T04:19:03;11.30;1.00
2945;DHT22;1482;51.398;7.128;2023-03-23T04:21:29;11.30;1.00
2945;DHT22;1482;51.398;7.128;2023-03-23T04:23:56;11.40;1.00
2945;DHT22;1482;51.398;7.128;2023-03-23T04:26:26;11.40;1.00
2945;DHT22;1482;51.398;7.128;2023-03-23T04:28:51;11.40;1.00
2945;DHT22;1482;51.398;7.128;2023-03-23T04:31:17;11.40;1.00
2945;DHT22;1482;51.398;7.128;2023-03-23T04:33:43;11.40;1.00
2945;DHT22;1482;51.398;7.128;2023-03-23T04:36:08;11.40;1.00
2945;DHT22;1482;51.398;7.128;2023-03-23T04:38:34;11.40;1.00
2945;DHT22;1482;51.398;7.128;2023-03-23T04:41:00;11.40;1.00
2945;DHT22;1482;51.398;7.128;2023-03-23T04:43:28;11.40;1.00
2945;DHT22;1482;51.398;7.128;2023-03-23T04:45:55;11.40;1.00
2945;DHT22;1482;51.398;7.128;2023-03-23T04:48:30;11.40;1.00
2945;DHT22;1482;51.398;7.128;2023-03-23T04:50:58;11.40;1.00
2945;DHT22;1482;51.398;7.128;2023-03-23T04:53:26;11.40;1.00
2945;DHT22;1482;51.398;7.128;2023-03-23T04:55:51;11.40;1.00
2945;DHT22;1482;51.398;7.128;2023-03-23T04:58:17;11.40;1.00
2945;DHT22;1482;51.398;7.128;2023-03-23T05:00:43;11.40;1.00
2945;DHT22;1482;51.398;7.128;2023-03-23T05:03:15;11.50;1.00
2945;DHT22;1482;51.398;7.128;2023-03-23T05:05:42;11.50;99.90
2945;DHT22;1482;51.398;7.128;2023-03-23T05:08:08;11.50;1.00
2945;DHT22;1482;51.398;7.128;2023-03-23T05:10:34;11.50;1.00
2945;DHT22;1482;51.398;7.128;2023-03-23T05:12:59;11.40;99.90
2945;DHT22;1482;51.398;7.128;2023-03-23T05:15:25;11.50;99.90
2945;DHT22;1482;51.398;7.128;2023-03-23T05:17:53;11.50;99.90
2945;DHT22;1482;51.398;7.128;2023-03-23T05:20:19;11.50;99.90
2945;DHT22;1482;51.398;7.128;2023-03-23T05:22:46;11.60;99.90
2945;DHT22;1482;51.398;7.128;2023-03-23T05:25:14;11.50;99.90
2945;DHT22;1482;51.398;7.128;2023-03-23T05:27:40;11.60;99.90
2945;DHT22;1482;51.398;7.128;2023-03-23T05:30:14;11.60;99.90
2945;DHT22;1482;51.398;7.128;2023-03-23T05:32:42;11.60;99.90
2945;DHT22;1482;51.398;7.128;2023-03-23T05:35:08;11.60;99.90
2945;DHT22;1482;51.398;7.128;2023-03-23T05:37:34;11.60;99.90
2945;DHT22;1482;51.398;7.128;2023-03-23T05:39:59;11.60;99.90
2945;DHT22;1482;51.398;7.128;2023-03-23T05:42:34;11.60;99.90
2945;DHT22;1482;51.398;7.128;2023-03-23T05:45:02;11.60;99.90
2945;DHT22;1482;51.398;7.128;2023-03-23T05:47:28;11.60;99.90
2945;DHT22;1482;51.398;7.128;2023-03-23T05:49:54;11.60;99.90
2945;DHT22;1482;51.398;7.128;2023-03-23T05:52:19;11.60;99.90
2945;DHT22;1482;51.398;7.128;2023-03-23T05:54:46;11.60;99.90
2945;DHT22;1482;51.398;7.128;2023-03-23T05:57:11;11.60;99.90
2945;DHT22;1482;51.398;7.128;2023-03-23T05:59:37;11.60;99.90
2945;DHT22;1482;51.398;7.128;2023-03-23T06:02:03;11.60;99.90
2945;DHT22;1482;51.398;7.128;2023-03-23T06:04:29;11.60;99.90
2945;DHT22;1482;51.398;7.128;2023-03-23T06:06:55;11.70;99.90
2945;DHT22;1482;51.398;7.128;2023-03-23T06:09:21;11.70;99.90
2945;DHT22;1482;51.398;7.128;2023-03-23T06:11:48;11.70;99.90
2945;DHT22;1482;51.398;7.128;2023-03-23T06:14:14;11.70;99.90
2945;DHT22;1482;51.398;7.128;2023-03-23T06:16:39;11.70;99.90
2945;DHT22;1482;51.398;7.128;2023-03-23T06:19:05;11.70;99.90
2945;DHT22;1482;51.398;7.128;2023-03-23T06:21:31;11.70;99.90
2945;DHT22;1482;51.398;7.128;2023-03-23T06:23:57;11.80;99.90
2945;DHT22;1482;51.398;7.128;2023-03-23T06:26:28;11.80;99.90
2945;DHT22;1482;51.398;7.128;2023-03-23T06:28:53;11.80;99.90
2945;DHT22;1482;51.398;7.128;2023-03-23T06:31:19;11.80;99.90
2945;DHT22;1482;51.398;7.128;2023-03-23T06:33:45;11.80;99.90
2945;DHT22;1482;51.398;7.128;2023-03-23T06:36:12;11.90;99.90
2945;DHT22;1482;51.398;7.128;2023-03-23T06:38:38;11.90;99.90
2945;DHT22;1482;51.398;7.128;2023-03-23T06:41:04;11.90;99.90
2945;DHT22;1482;51.398;7.128;2023-03-23T06:43:30;12.00;99.90
2945;DHT22;1482;51.398;7.128;2023-03-23T06:45:58;12.00;99.90
2945;DHT22;1482;51.398;7.128;2023-03-23T06:48:24;12.00;99.90
2945;DHT22;1482;51.398;7.128;2023-03-23T06:50:49;12.00;99.90
2945;DHT22;1482;51.398;7.128;2023-03-23T06:53:15;12.10;99.90
2945;DHT22;1482;51.398;7.128;2023-03-23T06:55:43;12.10;99.90
2945;DHT22;1482;51.398;7.128;2023-03-23T06:58:09;12.10;99.90
2945;DHT22;1482;51.398;7.128;2023-03-23T07:00:34;12.10;99.90
2945;DHT22;1482;51.398;7.128;2023-03-23T07:03:00;12.20;99.90
2945;DHT22;1482;51.398;7.128;2023-03-23T07:05:26;12.30;99.90
2945;DHT22;1482;51.398;7.128;2023-03-23T07:07:52;12.40;99.90
2945;DHT22;1482;51.398;7.128;2023-03-23T07:10:17;12.40;99.90
2945;DHT22;1482;51.398;7.128;2023-03-23T07:12:43;12.40;99.90
2945;DHT22;1482;51.398;7.128;2023-03-23T07:15:09;12.40;99.90
2945;DHT22;1482;51.398;7.128;2023-03-23T07:17:37;12.40;99.90
2945;DHT22;1482;51.398;7.128;2023-03-23T07:20:03;12.40;99.90
2945;DHT22;1482;51.398;7.128;2023-03-23T07:22:30;12.40;99.90
2945;DHT22;1482;51.398;7.128;2023-03-23T07:24:55;12.40;99.90
2945;DHT22;1482;51.398;7.128;2023-03-23T07:27:21;12.50;99.90
2945;DHT22;1482;51.398;7.128;2023-03-23T07:29:47;12.50;99.90
2945;DHT22;1482;51.398;7.128;2023-03-23T07:32:12;12.50;99.90
2945;DHT22;1482;51.398;7.128;2023-03-23T07:34:39;12.60;99.90
2945;DHT22;1482;51.398;7.128;2023-03-23T07:37:04;12.60;99.90
2945;DHT22;1482;51.398;7.128;2023-03-23T07:39:31;12.60;87.70
2945;DHT22;1482;51.398;7.128;2023-03-23T07:41:57;12.70;95.00
2945;DHT22;1482;51.398;7.128;2023-03-23T07:44:23;12.70;91.50
2945;DHT22;1482;51.398;7.128;2023-03-23T07:46:49;12.70;91.90
2945;DHT22;1482;51.398;7.128;2023-03-23T07:49:14;12.70;80.30
2945;DHT22;1482;51.398;7.128;2023-03-23T07:51:40;12.70;83.10
2945;DHT22;1482;51.398;7.128;2023-03-23T07:54:06;12.70;85.30
2945;DHT22;1482;51.398;7.128;2023-03-23T07:56:37;12.70;76.60
2945;DHT22;1482;51.398;7.128;2023-03-23T07:59:05;12.70;86.70
2945;DHT22;1482;51.398;7.128;2023-03-23T08:01:31;12.70;83.10
2945;DHT22;1482;51.398;7.128;2023-03-23T08:03:57;12.70;92.20
2945;DHT22;1482;51.398;7.128;2023-03-23T08:06:26;12.70;66.60
2945;DHT22;1482;51.398;7.128;2023-03-23T08:08:52;12.80;59.20
2945;DHT22;1482;51.398;7.128;2023-03-23T08:11:18;12.90;54.30
2945;DHT22;1482;51.398;7.128;2023-03-23T08:13:46;12.80;50.00
2945;DHT22;1482;51.398;7.128;2023-03-23T08:16:11;12.80;46.80
2945;DHT22;1482;51.398;7.128;2023-03-23T08:18:38;12.90;46.80
2945;DHT22;1482;51.398;7.128;2023-03-23T08:21:06;12.90;41.60
2945;DHT22;1482;51.398;7.128;2023-03-23T08:23:34;12.90;38.40
2945;DHT22;1482;51.398;7.128;2023-03-23T08:26:02;12.90;38.60
2945;DHT22;1482;51.398;7.128;2023-03-23T08:28:28;12.90;26.40
2945;DHT22;1482;51.398;7.128;2023-03-23T08:30:54;13.00;25.20
2945;DHT22;1482;51.398;7.128;2023-03-23T08:33:19;13.00;24.50
2945;DHT22;1482;51.398;7.128;2023-03-23T08:35:54;13.00;18.40
2945;DHT22;1482;51.398;7.128;2023-03-23T08:38:20;13.10;25.70
2945;DHT22;1482;51.398;7.128;2023-03-23T08:40:46;13.20;22.90
2945;DHT22;1482;51.398;7.128;2023-03-23T08:43:13;13.20;24.30
2945;DHT22;1482;51.398;7.128;2023-03-23T08:45:39;13.30;14.00
2945;DHT22;1482;51.398;7.128;2023-03-23T08:48:04;13.40;25.00
2945;DHT22;1482;51.398;7.128;2023-03-23T08:50:32;13.40;12.40
2945;DHT22;1482;51.398;7.128;2023-03-23T08:52:58;13.60;11.20
2945;DHT22;1482;51.398;7.128;2023-03-23T08:55:24;13.60;9.60
2945;DHT22;1482;51.398;7.128;2023-03-23T08:57:50;13.60;1.00
2945;DHT22;1482;51.398;7.128;2023-03-23T09:00:18;13.50;1.30
2945;DHT22;1482;51.398;7.128;2023-03-23T09:02:48;13.50;1.00
2945;DHT22;1482;51.398;7.128;2023-03-23T09:05:16;13.50;2.00
2945;DHT22;1482;51.398;7.128;2023-03-23T09:07:49;13.60;1.20
2945;DHT22;1482;51.398;7.128;2023-03-23T09:10:16;13.80;3.60
2945;DHT22;1482;51.398;7.128;2023-03-23T09:12:42;13.90;1.00
2945;DHT22;1482;51.398;7.128;2023-03-23T09:15:10;14.10;1.00
2945;DHT22;1482;51.398;7.128;2023-03-23T09:17:39;14.10;1.00
2945;DHT22;1482;51.398;7.128;2023-03-23T09:20:06;14.10;1.00
2945;DHT22;1482;51.398;7.128;2023-03-23T09:22:44;14.00;1.00
2945;DHT22;1482;51.398;7.128;2023-03-23T09:25:12;13.90;1.00
2945;DHT22;1482;51.398;7.128;2023-03-23T09:27:38;13.90;1.00
2945;DHT22;1482;51.398;7.128;2023-03-23T09:30:07;13.80;1.00
2945;DHT22;1482;51.398;7.128;2023-03-23T09:32:34;13.80;1.00
2945;DHT22;1482;51.398;7.128;2023-03-23T09:35:05;13.90;1.00
2945;DHT22;1482;51.398;7.128;2023-03-23T09:37:35;13.90;1.00
2945;DHT22;1482;51.398;7.128;2023-03-23T09:40:03;13.80;1.00
2945;DHT22;1482;51.398;7.128;2023-03-23T09:45:19;13.90;1.00
2945;DHT22;1482;51.398;7.128;2023-03-23T09:47:51;13.90;1.00
2945;DHT22;1482;51.398;7.128;2023-03-23T09:50:24;14.00;1.00
2945;DHT22;1482;51.398;7.128;2023-03-23T09:52:58;14.10;1.00
2945;DHT22;1482;51.398;7.128;2023-03-23T09:55:24;14.00;1.00
2945;DHT22;1482;51.398;7.128;2023-03-23T09:58:03;13.90;1.00
2945;DHT22;1482;51.398;7.128;2023-03-23T10:00:38;13.80;1.00
2945;DHT22;1482;51.398;7.128;2023-03-23T10:03:26;13.70;1.00
2945;DHT22;1482;51.398;7.128;2023-03-23T10:05:54;13.90;1.00
2945;DHT22;1482;51.398;7.128;2023-03-23T10:16:19;13.80;4.40
2945;DHT22;1482;51.398;7.128;2023-03-23T10:19:12;13.70;32.70
2945;DHT22;1482;51.398;7.128;2023-03-23T10:21:46;13.70;78.10
2945;DHT22;1482;51.398;7.128;2023-03-23T10:24:16;13.50;99.90
2945;DHT22;1482;51.398;7.128;2023-03-23T10:27:09;13.40;99.90
2945;DHT22;1482;51.398;7.128;2023-03-23T10:30:02;13.20;99.90
2945;DHT22;1482;51.398;7.128;2023-03-23T10:33:18;13.10;99.90
2945;DHT22;1482;51.398;7.128;2023-03-23T10:35:51;13.10;99.90
2945;DHT22;1482;51.398;7.128;2023-03-23T10:38:31;12.80;99.90
2945;DHT22;1482;51.398;7.128;2023-03-23T10:41:11;12.70;99.90
2945;DHT22;1482;51.398;7.128;2023-03-23T10:43:38;12.80;99.90
2945;DHT22;1482;51.398;7.128;2023-03-23T10:48:43;12.50;99.90
2945;DHT22;1482;51.398;7.128;2023-03-23T10:51:12;12.50;99.90
2945;DHT22;1482;51.398;7.128;2023-03-23T10:53:45;12.20;99.90
2945;DHT22;1482;51.398;7.128;2023-03-23T10:56:26;12.30;99.90
2945;DHT22;1482;51.398;7.128;2023-03-23T10:58:52;12.40;99.90
2945;DHT22;1482;51.398;7.128;2023-03-23T11:01:20;12.40;99.90
2945;DHT22;1482;51.398;7.128;2023-03-23T11:03:48;12.50;99.90
2945;DHT22;1482;51.398;7.128;2023-03-23T11:06:24;12.50;99.90
2945;DHT22;1482;51.398;7.128;2023-03-23T11:09:10;12.60;99.90
2945;DHT22;1482;51.398;7.128;2023-03-23T11:11:39;12.50;99.90
2945;DHT22;1482;51.398;7.128;2023-03-23T11:14:19;12.50;99.90
2945;DHT22;1482;51.398;7.128;2023-03-23T11:16:55;12.40;99.90
2945;DHT22;1482;51.398;7.128;2023-03-23T11:19:34;12.20;99.90
2945;DHT22;1482;51.398;7.128;2023-03-23T11:24:43;12.40;99.90
2945;DHT22;1482;51.398;7.128;2023-03-23T11:27:10;12.40;99.90
2945;DHT22;1482;51.398;7.128;2023-03-23T11:32:16;12.20;99.90
2945;DHT22;1482;51.398;7.128;2023-03-23T11:37:11;12.00;99.90
2945;DHT22;1482;51.398;7.128;2023-03-23T11:39:53;12.00;99.90
2945;DHT22;1482;51.398;7.128;2023-03-23T11:42:22;11.80;99.90
2945;DHT22;1482;51.398;7.128;2023-03-23T11:44:48;11.70;99.90
2945;DHT22;1482;51.398;7.128;2023-03-23T11:47:29;11.70;1.00
2945;DHT22;1482;51.398;7.128;2023-03-23T11:50:10;11.80;1.00
2945;DHT22;1482;51.398;7.128;2023-03-23T11:52:59;11.70;99.90
2945;DHT22;1482;51.398;7.128;2023-03-23T11:58:15;11.70;1.00
2945;DHT22;1482;51.398;7.128;2023-03-23T12:00:58;12.00;1.00
2945;DHT22;1482;51.398;7.128;2023-03-23T12:20:45;12.00;1.00
2945;DHT22;1482;51.398;7.128;2023-03-23T12:31:19;12.00;1.00
2945;DHT22;1482;51.398;7.128;2023-03-23T12:34:13;12.00;1.00
2945;DHT22;1482;51.398;7.128;2023-03-23T12:37:01;12.00;1.00
2945;DHT22;1482;51.398;7.128;2023-03-23T12:48:04;11.80;99.90
2945;DHT22;1482;51.398;7.128;2023-03-23T12:50:42;11.70;1.00
2945;DHT22;1482;51.398;7.128;2023-03-23T12:53:32;11.70;99.90
2945;DHT22;1482;51.398;7.128;2023-03-23T12:56:14;11.90;1.00
2945;DHT22;1482;51.398;7.128;2023-03-23T12:58:47;11.90;1.00
2945;DHT22;1482;51.398;7.128;2023-03-23T13:01:18;11.70;98.20
2945;DHT22;1482;51.398;7.128;2023-03-23T13:04:05;11.80;35.80
2945;DHT22;1482;51.398;7.128;2023-03-23T13:06:43;12.00;1.00
2945;DHT22;1482;51.398;7.128;2023-03-23T13:11:41;12.00;99.90
2945;DHT22;1482;51.398;7.128;2023-03-23T13:17:04;11.90;99.90
2945;DHT22;1482;51.398;7.128;2023-03-23T13:19:59;11.90;99.90
2945;DHT22;1482;51.398;7.128;2023-03-23T13:22:52;11.90;1.00
2945;DHT22;1482;51.398;7.128;2023-03-23T13:29:20;12.10;1.00
2945;DHT22;1482;51.398;7.128;2023-03-23T13:31:31;12.40;99.90
2945;DHT22;1482;51.398;7.128;2023-03-23T13:36:33;13.20;1.00
2945;DHT22;1482;51.398;7.128;2023-03-23T13:39:01;13.40;1.00
2945;DHT22;1482;51.398;7.128;2023-03-23T13:41:29;13.50;1.00
2945;DHT22;1482;51.398;7.128;2023-03-23T13:44:15;13.60;1.00
2945;DHT22;1482;51.398;7.128;2023-03-23T13:46:42;13.70;99.90
2945;DHT22;1482;51.398;7.128;2023-03-23T13:49:20;13.60;99.90
2945;DHT22;1482;51.398;7.128;2023-03-23T13:52:00;13.80;99.90
2945;DHT22;1482;51.398;7.128;2023-03-23T13:54:38;13.70;99.90
2945;DHT22;1482;51.398;7.128;2023-03-23T13:57:24;13.80;99.90
2945;DHT22;1482;51.398;7.128;2023-03-23T13:59:56;13.50;99.90
2945;DHT22;1482;51.398;7.128;2023-03-23T14:04:54;13.30;99.90
2945;DHT22;1482;51.398;7.128;2023-03-23T14:07:20;13.20;1.00
2945;DHT22;1482;51.398;7.128;2023-03-23T14:09:46;13.10;1.00
2945;DHT22;1482;51.398;7.128;2023-03-23T14:12:17;13.20;1.00
2945;DHT22;1482;51.398;7.128;2023-03-23T14:14:55;13.10;1.00
2945;DHT22;1482;51.398;7.128;2023-03-23T14:17:29;13.10;1.00
2945;DHT22;1482;51.398;7.128;2023-03-23T14:19:57;13.00;1.00
2945;DHT22;1482;51.398;7.128;2023-03-23T14:22:26;13.10;1.00
2945;DHT22;1482;51.398;7.128;2023-03-23T14:24:58;13.00;1.00
2945;DHT22;1482;51.398;7.128;2023-03-23T14:27:25;13.10;1.00
2945;DHT22;1482;51.398;7.128;2023-03-23T14:29:59;13.00;1.00
2945;DHT22;1482;51.398;7.128;2023-03-23T14:32:27;12.90;27.40
2945;DHT22;1482;51.398;7.128;2023-03-23T14:34:54;12.90;99.90
2945;DHT22;1482;51.398;7.128;2023-03-23T14:37:21;12.60;99.90
2945;DHT22;1482;51.398;7.128;2023-03-23T14:39:49;12.50;1.00
2945;DHT22;1482;51.398;7.128;2023-03-23T14:42:28;12.70;1.00
2945;DHT22;1482;51.398;7.128;2023-03-23T14:44:54;12.90;42.50
2945;DHT22;1482;51.398;7.128;2023-03-23T14:47:23;13.10;99.90
2945;DHT22;1482;51.398;7.128;2023-03-23T14:49:56;13.20;99.90
2945;DHT22;1482;51.398;7.128;2023-03-23T14:52:25;13.20;1.00
2945;DHT22;1482;51.398;7.128;2023-03-23T14:54:51;13.20;99.90
2945;DHT22;1482;51.398;7.128;2023-03-23T14:57:28;13.20;99.90
2945;DHT22;1482;51.398;7.128;2023-03-23T14:59:54;13.10;25.60
2945;DHT22;1482;51.398;7.128;2023-03-23T15:02:33;13.00;1.00
2945;DHT22;1482;51.398;7.128;2023-03-23T15:05:04;12.90;1.00
2945;DHT22;1482;51.398;7.128;2023-03-23T15:07:36;13.00;1.00
2945;DHT22;1482;51.398;7.128;2023-03-23T15:10:06;13.00;1.00
2945;DHT22;1482;51.398;7.128;2023-03-23T15:12:32;13.10;1.00
2945;DHT22;1482;51.398;7.128;2023-03-23T15:15:03;13.30;1.00
2945;DHT22;1482;51.398;7.128;2023-03-23T15:17:32;13.10;99.90
2945;DHT22;1482;51.398;7.128;2023-03-23T15:20:08;13.20;99.90
2945;DHT22;1482;51.398;7.128;2023-03-23T15:22:34;13.20;99.90
2945;DHT22;1482;51.398;7.128;2023-03-23T15:25:16;13.40;99.90
2945;DHT22;1482;51.398;7.128;2023-03-23T15:27:48;13.40;99.90
2945;DHT22;1482;51.398;7.128;2023-03-23T15:30:32;13.40;99.90
2945;DHT22;1482;51.398;7.128;2023-03-23T15:33:03;13.40;99.90
2945;DHT22;1482;51.398;7.128;2023-03-23T15:35:34;13.50;99.90
2945;DHT22;1482;51.398;7.128;2023-03-23T15:38:03;13.40;99.90
2945;DHT22;1482;51.398;7.128;2023-03-23T15:40:35;13.40;99.90
2945;DHT22;1482;51.398;7.128;2023-03-23T15:43:23;13.40;99.90
2945;DHT22;1482;51.398;7.128;2023-03-23T15:48:52;13.30;99.90
2945;DHT22;1482;51.398;7.128;2023-03-23T15:51:23;13.30;99.90
2945;DHT22;1482;51.398;7.128;2023-03-23T15:53:53;13.40;99.90
2945;DHT22;1482;51.398;7.128;2023-03-23T15:56:19;13.40;99.90
2945;DHT22;1482;51.398;7.128;2023-03-23T15:58:45;13.30;99.90
2945;DHT22;1482;51.398;7.128;2023-03-23T16:01:13;13.30;99.90
2945;DHT22;1482;51.398;7.128;2023-03-23T16:03:49;13.30;99.90
2945;DHT22;1482;51.398;7.128;2023-03-23T16:06:17;13.20;99.90
2945;DHT22;1482;51.398;7.128;2023-03-23T16:08:43;13.20;99.90
2945;DHT22;1482;51.398;7.128;2023-03-23T16:11:14;13.20;99.90
2945;DHT22;1482;51.398;7.128;2023-03-23T16:13:40;13.20;99.90
2945;DHT22;1482;51.398;7.128;2023-03-23T16:16:11;13.30;99.90
2945;DHT22;1482;51.398;7.128;2023-03-23T16:18:38;13.30;99.90
2945;DHT22;1482;51.398;7.128;2023-03-23T16:21:03;13.20;99.90
2945;DHT22;1482;51.398;7.128;2023-03-23T16:23:29;13.20;99.90
2945;DHT22;1482;51.398;7.128;2023-03-23T16:25:54;13.20;99.90
2945;DHT22;1482;51.398;7.128;2023-03-23T16:28:20;13.20;99.90
2945;DHT22;1482;51.398;7.128;2023-03-23T16:30:47;13.00;99.90
2945;DHT22;1482;51.398;7.128;2023-03-23T16:33:13;13.20;99.90
2945;DHT22;1482;51.398;7.128;2023-03-23T16:35:39;13.20;99.90
2945;DHT22;1482;51.398;7.128;2023-03-23T16:38:05;13.20;99.90
2945;DHT22;1482;51.398;7.128;2023-03-23T16:40:30;13.20;99.90
2945;DHT22;1482;51.398;7.128;2023-03-23T16:42:57;13.10;99.90
2945;DHT22;1482;51.398;7.128;2023-03-23T16:45:24;13.00;99.90
2945;DHT22;1482;51.398;7.128;2023-03-23T16:47:51;13.00;99.90
2945;DHT22;1482;51.398;7.128;2023-03-23T16:50:19;13.10;99.90
2945;DHT22;1482;51.398;7.128;2023-03-23T16:52:45;13.10;99.90
2945;DHT22;1482;51.398;7.128;2023-03-23T16:55:13;13.10;99.90
2945;DHT22;1482;51.398;7.128;2023-03-23T16:57:38;13.00;99.90
2945;DHT22;1482;51.398;7.128;2023-03-23T17:00:07;13.00;99.90
2945;DHT22;1482;51.398;7.128;2023-03-23T17:02:34;12.90;99.90
2945;DHT22;1482;51.398;7.128;2023-03-23T17:05:00;12.90;99.90
2945;DHT22;1482;51.398;7.128;2023-03-23T17:07:27;12.90;99.90
2945;DHT22;1482;51.398;7.128;2023-03-23T17:09:52;12.90;99.90
2945;DHT22;1482;51.398;7.128;2023-03-23T17:12:18;12.90;99.90
2945;DHT22;1482;51.398;7.128;2023-03-23T17:14:44;12.90;99.90
2945;DHT22;1482;51.398;7.128;2023-03-23T17:17:10;12.80;99.90
2945;DHT22;1482;51.398;7.128;2023-03-23T17:19:36;12.70;99.90
2945;DHT22;1482;51.398;7.128;2023-03-23T17:22:01;12.70;99.90
2945;DHT22;1482;51.398;7.128;2023-03-23T17:24:27;12.80;99.90
2945;DHT22;1482;51.398;7.128;2023-03-23T17:26:53;12.70;99.90
2945;DHT22;1482;51.398;7.128;2023-03-23T17:29:19;12.70;99.90
2945;DHT22;1482;51.398;7.128;2023-03-23T17:31:47;12.70;99.90
2945;DHT22;1482;51.398;7.128;2023-03-23T17:34:13;12.80;99.90
2945;DHT22;1482;51.398;7.128;2023-03-23T17:36:38;12.80;99.90
2945;DHT22;1482;51.398;7.128;2023-03-23T17:39:04;12.70;99.90
2945;DHT22;1482;51.398;7.128;2023-03-23T17:41:30;12.80;99.90
2945;DHT22;1482;51.398;7.128;2023-03-23T17:43:55;12.90;99.90
2945;DHT22;1482;51.398;7.128;2023-03-23T17:46:21;13.00;99.90
2945;DHT22;1482;51.398;7.128;2023-03-23T17:48:46;12.90;99.90
2945;DHT22;1482;51.398;7.128;2023-03-23T17:51:12;13.00;99.90